Time;durP1;ratioP1;P1;durP2;ratioP2;P2;SDS_P1;SDS_P2;PMS_P1;PMS_P2;Temp;Humidity;BMP_temperature;BMP_pressure;BME280_temperature;BME280_humidity;BME280_pressure;Samples;Min_cycle;Max_cycle;Signal;HPM_P1;HPM_P2
2023/01/06 00:01:57;;;;;;;18.63;9.13;;;;;;;-9.51;90.92;102083.47;5033282;28;20026;-65
2023/01/06 00:04:23;;;;;;;17.08;9.63;;;;;;;-9.65;91.17;102072.31;5033022;28;20041;-66
2023/01/06 00:06:48;;;;;;;14.37;8.20;;;;;;;-9.59;91.45;102079.16;5015633;28;20035;-65
2023/01/06 00:09:14;;;;;;;16.50;8.13;;;;;;;-9.49;91.38;102081.75;5033085;28;20017;-66
2023/01/06 00:11:40;;;;;;;17.57;9.77;;;;;;;-9.47;91.40;102071.41;5015328;28;20098;-65
2023/01/06 00:14:05;;;;;;;16.70;10.07;;;;;;;-9.41;91.25;102086.88;5032922;28;20148;-65
2023/01/06 00:16:31;;;;;;;17.97;10.23;;;;;;;-9.38;91.55;102087.72;5032694;28;20544;-66
2023/01/06 00:18:58;;;;;;;16.43;8.90;;;;;;;-9.28;91.75;102082.50;5032690;28;20084;-65
2023/01/06 00:21:25;;;;;;;23.00;10.85;;;;;;;-9.24;90.98;102079.94;5032381;28;20052;-65
2023/01/06 00:23:50;;;;;;;15.70;9.93;;;;;;;-9.17;91.03;102086.78;5032890;28;20030;-65
2023/01/06 00:26:16;;;;;;;18.53;10.07;;;;;;;-9.08;90.86;102089.34;5032756;28;20527;-66
2023/01/06 00:28:42;;;;;;;18.43;10.83;;;;;;;-9.14;90.41;102084.19;5032940;28;20026;-67
2023/01/06 00:31:11;;;;;;;27.90;10.57;;;;;;;-9.26;90.34;102081.66;5032941;28;20025;-68
2023/01/06 00:33:37;;;;;;;17.00;9.23;;;;;;;-9.25;90.90;102091.13;5015196;28;20401;-66
2023/01/06 00:36:04;;;;;;;21.97;11.80;;;;;;;-9.27;91.00;102087.66;5033167;28;20039;-67
2023/01/06 00:38:30;;;;;;;22.35;9.68;;;;;;;-9.25;90.92;102098.88;5033240;28;20061;-66
2023/01/06 00:40:55;;;;;;;18.37;11.27;;;;;;;-9.21;91.35;102095.41;5033116;28;20663;-65
2023/01/06 00:43:21;;;;;;;23.60;11.07;;;;;;;-9.12;90.83;102095.38;5032917;28;20033;-66
2023/01/06 00:45:46;;;;;;;18.93;10.10;;;;;;;-9.02;90.88;102103.06;5032539;28;20033;-66
2023/01/06 00:48:12;;;;;;;16.73;9.63;;;;;;;-8.99;90.68;102103.91;5032493;28;20034;-64
2023/01/06 00:50:38;;;;;;;19.60;10.70;;;;;;;-9.04;90.93;102097.06;5032793;28;20034;-64
2023/01/06 00:53:03;;;;;;;24.47;11.83;;;;;;;-9.04;90.92;102107.38;5032562;28;20346;-63
2023/01/06 00:55:29;;;;;;;22.63;12.10;;;;;;;-9.04;90.34;102102.22;5032856;28;20033;-67
2023/01/06 00:57:54;;;;;;;29.53;12.53;;;;;;;-9.01;90.97;102117.69;5032891;28;20132;-65
2023/01/06 01:00:20;;;;;;;19.70;11.23;;;;;;;-8.97;90.64;102119.41;5034839;28;20033;-65
2023/01/06 01:02:46;;;;;;;29.27;15.93;;;;;;;-8.99;90.32;102123.72;5017085;28;20032;-64
2023/01/06 01:05:12;;;;;;;25.40;14.03;;;;;;;-9.00;90.47;102124.56;5035039;28;20034;-67
2023/01/06 01:07:39;;;;;;;19.80;12.05;;;;;;;-8.86;90.83;102133.13;5033254;28;20493;-65
2023/01/06 01:10:06;;;;;;;16.52;11.07;;;;;;;-8.82;91.10;102119.34;5032249;28;20030;-66
2023/01/06 01:12:32;;;;;;;17.35;9.45;;;;;;;-8.83;90.93;102110.75;5032306;28;20061;-66
2023/01/06 01:14:58;;;;;;;21.50;8.87;;;;;;;-8.63;90.82;102126.16;5032005;28;20432;-66
2023/01/06 01:17:28;;;;;;;14.65;8.98;;;;;;;-8.52;90.75;102145.03;5032028;28;20041;-66
2023/01/06 01:19:56;;;;;;;18.75;9.85;;;;;;;-8.53;90.50;102134.69;5032175;28;20061;-66
2023/01/06 01:22:23;;;;;;;15.25;8.93;;;;;;;-8.57;91.02;102130.41;5031918;28;20037;-66
2023/01/06 01:24:49;;;;;;;12.63;7.95;;;;;;;-8.57;90.88;102133.84;5031937;28;20531;-66
2023/01/06 01:27:15;;;;;;;13.57;8.30;;;;;;;-8.62;91.41;102138.19;5032103;28;20029;-64
2023/01/06 01:29:40;;;;;;;13.10;6.97;;;;;;;-8.73;91.40;102139.94;5031869;28;20022;-66
2023/01/06 01:32:06;;;;;;;9.90;6.40;;;;;;;-8.93;92.32;102139.19;5017608;28;20060;-66
2023/01/06 01:34:32;;;;;;;9.83;5.50;;;;;;;-9.09;93.23;102131.50;5036843;28;20151;-66
2023/01/06 01:36:57;;;;;;;10.10;5.73;;;;;;;-9.14;93.77;102147.84;5036551;28;20029;-66
2023/01/06 01:39:28;;;;;;;12.90;6.10;;;;;;;-9.15;94.05;102154.75;5037824;28;20537;-66
2023/01/06 01:41:55;;;;;;;11.15;5.70;;;;;;;-9.27;93.70;102154.75;5036171;28;20028;-66
2023/01/06 01:44:54;;;;;;;7.20;4.90;;;;;;;-9.31;94.20;102165.09;5035913;28;20465;-64
2023/01/06 01:47:25;;;;;;;7.53;4.53;;;;;;;-9.36;93.80;102170.25;5018118;28;20033;-66
2023/01/06 01:49:53;;;;;;;6.55;5.97;;;;;;;-9.45;93.55;102172.84;5035817;28;20116;-64
2023/01/06 01:52:21;;;;;;;5.05;4.55;;;;;;;-9.45;93.09;102181.47;5036181;28;20030;-66
2023/01/06 01:54:48;;;;;;;4.65;4.20;;;;;;;-9.43;92.75;102181.44;5035546;28;20150;-65
2023/01/06 01:57:19;;;;;;;8.30;5.75;;;;;;;-9.51;91.79;102173.72;5036027;28;20043;-64
2023/01/06 01:59:45;;;;;;;11.90;5.70;;;;;;;-9.47;91.35;102184.91;5035513;28;20052;-65
2023/01/06 02:02:15;;;;;;;11.95;7.60;;;;;;;-9.48;nan;102183.19;5035495;28;20021;-66
2023/01/06 02:04:43;;;;;;;15.13;8.32;;;;;;;-9.47;90.18;102174.59;5035190;28;20495;-64
2023/01/06 02:07:09;;;;;;;11.40;7.10;;;;;;;-9.55;88.99;102156.50;5035022;28;20052;-66
2023/01/06 02:09:43;;;;;;;20.37;8.40;;;;;;;-9.38;88.67;102175.41;5034178;28;20021;-67
2023/01/06 02:12:09;;;;;;;20.52;7.53;;;;;;;-9.19;88.39;102194.31;5035572;28;20041;-67
2023/01/06 02:14:35;;;;;;;12.35;7.07;;;;;;;-9.01;86.53;102200.28;5035140;28;20651;-66
2023/01/06 02:17:29;;;;;;;12.73;5.90;;;;;;;-8.92;85.84;102200.28;5035215;28;20476;-64
2023/01/06 02:20:50;;;;;;;10.52;5.22;;;;;;;-8.76;85.47;102201.94;5035342;28;20119;-65
2023/01/06 02:23:21;;;;;;;6.15;3.97;;;;;;;-8.79;84.40;102189.03;4974074;28;20043;-66
2023/01/06 02:26:19;;;;;;;5.53;3.92;;;;;;;-8.61;83.96;102212.22;4974045;28;20041;-67
2023/01/06 02:29:27;;;;;;;4.97;4.50;;;;;;;-8.61;84.08;102203.63;5024881;28;20038;-66
2023/01/06 02:31:55;;;;;;;;;;;;;;;-8.58;84.59;102207.06;5035308;28;20441;-65
2023/01/06 02:34:47;;;;;;;5.07;4.13;;;;;;;-8.65;84.68;102199.34;5034607;28;19909;-66
2023/01/06 02:37:28;;;;;;;3.42;3.13;;;;;;;-8.59;85.13;102219.97;5034912;28;20128;-65
2023/01/06 02:40:18;;;;;;;4.00;2.95;;;;;;;-8.55;85.04;102227.69;5034926;28;20022;-66
2023/01/06 02:43:09;;;;;;;8.23;3.60;;;;;;;-8.50;84.43;102228.53;5033891;28;20037;-68
2023/01/06 02:46:06;;;;;;;6.95;2.75;;;;;;;-8.53;83.05;102220.81;5034549;28;20071;-63
2023/01/06 02:49:22;;;;;;;3.45;3.15;;;;;;;-8.32;83.94;102244.81;5034446;28;20037;-66
2023/01/06 02:52:01;;;;;;;10.52;4.70;;;;;;;-8.33;82.76;102248.28;5001000;28;20037;-64
2023/01/06 02:54:33;;;;;;;4.03;2.90;;;;;;;-8.24;83.65;102253.38;5034484;28;20168;-64
2023/01/06 02:57:17;;;;;;;6.05;3.50;;;;;;;-8.30;83.10;102243.94;5034376;28;20037;-65
2023/01/06 02:59:58;;;;;;;6.22;3.40;;;;;;;-8.26;84.49;102250.78;5034844;28;20040;-65
2023/01/06 03:02:26;;;;;;;5.82;3.65;;;;;;;-8.32;84.47;102234.47;5034314;28;20035;-64
2023/01/06 03:04:55;;;;;;;6.78;4.32;;;;;;;-8.31;85.34;102251.69;5034241;28;20052;-64
2023/01/06 03:07:21;;;;;;;4.25;3.17;;;;;;;-8.30;85.89;102253.41;5034496;28;20377;-67
2023/01/06 03:09:52;;;;;;;5.57;3.88;;;;;;;-8.30;86.28;102253.41;5034169;28;20460;-64
2023/01/06 03:12:26;;;;;;;5.50;3.30;;;;;;;-8.41;87.45;102250.88;5034458;28;20068;-65
2023/01/06 03:14:55;;;;;;;4.60;3.38;;;;;;;-8.52;87.47;102238.00;5034197;28;20054;-64
2023/01/06 03:17:23;;;;;;;6.38;3.58;;;;;;;-8.51;87.93;102257.81;5034137;28;20060;-65
2023/01/06 03:19:48;;;;;;;5.43;4.30;;;;;;;-8.56;88.84;102249.22;5034596;28;20073;-64
2023/01/06 03:22:15;;;;;;;4.97;3.50;;;;;;;-8.56;88.30;102261.28;5034442;28;20060;-64
2023/01/06 03:24:42;;;;;;;4.78;3.60;;;;;;;-8.59;88.09;102251.81;5033967;28;20417;-64
2023/01/06 03:27:08;;;;;;;5.00;3.45;;;;;;;-8.69;87.93;102257.88;5034077;28;20123;-67
2023/01/06 03:29:35;;;;;;;3.00;2.80;;;;;;;-8.70;87.30;102265.63;5033871;28;20117;-65
2023/01/06 03:32:09;;;;;;;4.25;3.35;;;;;;;-8.73;87.19;102268.22;5033839;28;20021;-65
2023/01/06 03:34:56;;;;;;;3.70;3.28;;;;;;;-8.65;85.99;102276.81;5033774;28;20083;-65
2023/01/06 03:38:00;;;;;;;4.07;3.13;;;;;;;-8.55;86.12;102278.50;5015977;28;20484;-64
2023/01/06 03:40:52;;;;;;;5.47;3.50;;;;;;;-8.45;85.46;102275.88;5033714;28;20033;-64
2023/01/06 03:43:34;;;;;;;3.45;3.15;;;;;;;-8.37;85.05;102269.84;5033709;28;20461;-65
2023/01/06 03:46:24;;;;;;;5.43;4.35;;;;;;;-8.25;84.37;102272.34;5033642;28;20095;-65
2023/01/06 03:49:17;;;;;;;4.88;2.92;;;;;;;-8.17;84.08;102266.25;5033880;28;20021;-64
2023/01/06 03:51:55;;;;;;;7.43;4.03;;;;;;;-8.12;83.29;102272.25;5033708;28;20365;-67
2023/01/06 03:54:36;;;;;;;3.42;3.13;;;;;;;-8.09;83.49;102281.75;5033295;28;20108;-65
2023/01/06 03:57:25;;;;;;;3.90;3.20;;;;;;;-8.03;82.42;102279.13;5033410;28;20044;-65
2023/01/06 03:59:59;;;;;;;5.43;3.38;;;;;;;-8.05;83.34;102270.53;5033204;28;20025;-66
2023/01/06 04:02:25;;;;;;;4.10;3.13;;;;;;;-8.00;82.92;102278.25;5033065;28;20416;-67
2023/01/06 04:05:21;;;;;;;8.27;3.10;;;;;;;-7.86;82.98;102297.97;5033263;28;20079;-66
2023/01/06 04:07:47;;;;;;;10.25;3.60;;;;;;;-7.79;82.09;102288.47;5020331;28;20283;-65
2023/01/06 04:10:15;;;;;;;3.63;3.20;;;;;;;-7.79;83.09;102285.91;5033069;28;20056;-64
2023/01/06 04:12:40;;;;;;;5.20;3.25;;;;;;;-7.89;82.71;102263.53;5033223;28;20466;-65
2023/01/06 04:15:14;;;;;;;3.67;3.37;;;;;;;-7.72;83.91;102290.16;5033109;28;20045;-67
2023/01/06 04:17:42;;;;;;;4.88;3.15;;;;;;;-7.71;83.79;102296.19;5033071;28;20481;-68
2023/01/06 04:20:11;;;;;;;5.13;2.72;;;;;;;-7.75;84.55;102294.50;5015209;28;20030;-65
2023/01/06 04:22:38;;;;;;;5.68;3.22;;;;;;;-7.69;84.85;102309.97;5032797;28;20045;-65
2023/01/06 04:25:06;;;;;;;6.80;3.35;;;;;;;-7.79;84.97;102304.00;5015651;28;20030;-67
2023/01/06 04:27:32;;;;;;;5.30;3.50;;;;;;;-7.77;84.99;102311.75;5032740;28;20386;-67
2023/01/06 04:29:57;;;;;;;5.00;2.87;;;;;;;-7.72;86.46;102307.41;5032767;28;20041;-64
2023/01/06 04:32:22;;;;;;;3.63;2.40;;;;;;;-7.78;85.92;102292.78;5032442;28;20053;-65
2023/01/06 04:34:48;;;;;;;3.53;2.73;;;;;;;-7.60;85.88;102310.75;5032527;28;20120;-64
2023/01/06 04:37:14;;;;;;;6.00;3.37;;;;;;;-7.53;85.76;102317.59;5032514;28;20021;-65
2023/01/06 04:39:40;;;;;;;4.60;3.00;;;;;;;-7.53;84.98;102307.25;5032712;28;20121;-68
2023/01/06 04:42:06;;;;;;;5.97;3.43;;;;;;;-7.53;85.27;102304.66;5033084;28;20487;-65
2023/01/06 04:44:31;;;;;;;4.70;2.80;;;;;;;-7.47;85.17;102327.09;5032676;28;20112;-66
2023/01/06 04:46:57;;;;;;;4.03;3.23;;;;;;;-7.52;85.11;102316.78;5032537;28;20033;-64
2023/01/06 04:49:22;;;;;;;4.47;3.00;;;;;;;-7.50;85.53;102315.03;5032320;28;20029;-69
2023/01/06 04:51:47;;;;;;;4.73;3.93;;;;;;;-7.45;85.51;102333.09;5032463;28;20033;-66
2023/01/06 04:54:13;;;;;;;4.50;3.10;;;;;;;-7.50;85.20;102332.28;5032339;28;20045;-65
2023/01/06 04:56:38;;;;;;;5.67;3.00;;;;;;;-7.52;85.26;102319.34;5032235;28;20064;-66
2023/01/06 04:59:04;;;;;;;5.13;3.73;;;;;;;-7.44;85.48;102327.06;5032317;28;20029;-66
2023/01/06 05:01:29;;;;;;;5.40;3.40;;;;;;;-7.41;84.73;102326.19;5032328;28;20477;-67
2023/01/06 05:03:55;;;;;;;6.70;3.13;;;;;;;-7.34;84.48;102333.03;5014721;28;20033;-65
2023/01/06 05:06:21;;;;;;;7.07;3.43;;;;;;;-7.38;84.57;102327.00;5031859;28;20033;-65
2023/01/06 05:08:47;;;;;;;4.63;3.90;;;;;;;-7.37;84.37;102323.56;5032147;28;20365;-65
2023/01/06 05:11:17;;;;;;;4.47;4.07;;;;;;;-7.31;84.07;102336.44;5032354;28;20033;-66
2023/01/06 05:13:43;;;;;;;5.20;2.97;;;;;;;-7.30;83.42;102335.56;5032137;28;20037;-66
2023/01/06 05:16:13;;;;;;;3.30;3.00;;;;;;;-7.28;83.12;102323.47;5032517;28;20050;-65
2023/01/06 05:18:40;;;;;;;3.67;3.20;;;;;;;-7.19;83.19;102332.94;5032412;28;20389;-67
2023/01/06 05:21:05;;;;;;;6.73;3.20;;;;;;;-7.19;82.93;102344.13;5032274;28;20029;-67
2023/01/06 05:23:31;;;;;;;5.53;3.90;;;;;;;-7.26;82.74;102337.25;5032394;28;20017;-65
2023/01/06 05:25:57;;;;;;;3.88;3.45;;;;;;;-7.23;82.94;102350.22;5032463;28;20054;-64
2023/01/06 05:28:23;;;;;;;4.60;3.10;;;;;;;-7.24;82.81;102345.88;5014568;28;20044;-65
2023/01/06 05:30:48;;;;;;;7.07;3.50;;;;;;;-7.16;82.33;102350.16;5031902;28;20033;-65
2023/01/06 05:33:14;;;;;;;4.50;3.00;;;;;;;-7.19;82.81;102357.09;5031903;28;20461;-67
2023/01/06 05:35:40;;;;;;;4.93;3.43;;;;;;;-7.29;82.46;102344.19;5031803;28;20476;-64
2023/01/06 05:38:05;;;;;;;5.07;3.10;;;;;;;-7.12;82.21;102363.06;5031909;28;20117;-67
2023/01/06 05:40:32;;;;;;;4.17;3.20;;;;;;;-7.12;82.63;102373.44;5014409;28;20029;-68
2023/01/06 05:42:58;;;;;;;4.50;3.38;;;;;;;-7.06;82.72;102370.78;5031936;28;20159;-67
2023/01/06 05:45:24;;;;;;;5.00;2.90;;;;;;;-7.11;82.69;102371.69;5031891;28;20453;-63
2023/01/06 05:47:50;;;;;;;4.35;3.10;;;;;;;-7.12;83.17;102373.44;5031512;28;20375;-67
2023/01/06 05:50:16;;;;;;;4.20;3.30;;;;;;;-7.20;83.54;102370.91;5031880;28;20033;-68
2023/01/06 05:52:42;;;;;;;4.73;3.27;;;;;;;-7.30;83.88;102366.63;5031797;28;20122;-64
2023/01/06 05:55:08;;;;;;;6.90;2.90;;;;;;;-7.45;84.68;102377.09;5031610;28;20445;-66
2023/01/06 05:57:35;;;;;;;4.68;3.55;;;;;;;-7.67;84.27;102370.31;5031584;28;20108;-66
2023/01/06 06:00:05;;;;;;;3.67;2.65;;;;;;;-7.73;85.27;102378.09;5031517;28;20072;-65
2023/01/06 06:02:30;;;;;;;4.55;3.50;;;;;;;-7.69;85.64;102382.41;5031135;28;20120;-65
2023/01/06 06:04:56;;;;;;;4.10;2.80;;;;;;;-7.66;86.39;102375.47;5031807;28;20342;-63
2023/01/06 06:07:21;;;;;;;6.30;3.10;;;;;;;-7.55;85.57;102386.63;5031518;28;20025;-66
2023/01/06 06:09:46;;;;;;;4.63;2.90;;;;;;;-7.54;86.05;102375.41;5031886;28;20025;-67
2023/01/06 06:12:12;;;;;;;5.97;3.33;;;;;;;-7.49;85.41;102378.00;5031570;28;20033;-67
2023/01/06 06:14:38;;;;;;;10.10;2.90;;;;;;;-7.37;85.98;102384.81;5031314;28;20049;-67
2023/01/06 06:17:03;;;;;;;5.80;3.10;;;;;;;-7.41;85.03;102373.63;5031479;28;20033;-66
2023/01/06 06:19:29;;;;;;;3.80;3.50;;;;;;;-7.24;84.93;102401.97;5033867;28;20044;-65
2023/01/06 06:21:54;;;;;;;5.43;3.67;;;;;;;-7.21;84.24;102392.47;5035290;28;20033;-66
2023/01/06 06:24:20;;;;;;;5.53;4.63;;;;;;;-7.15;83.92;102398.47;5035195;28;20025;-67
2023/01/06 06:26:47;;;;;;;4.95;3.50;;;;;;;-7.14;83.35;102392.44;5035136;28;20362;-67
2023/01/06 06:29:13;;;;;;;3.80;2.73;;;;;;;-7.11;83.27;102400.19;5035281;28;20021;-67
2023/01/06 06:31:38;;;;;;;4.20;3.03;;;;;;;-7.06;82.54;102401.84;5034885;28;20079;-65
2023/01/06 06:34:04;;;;;;;6.60;3.57;;;;;;;-7.02;83.65;102423.41;5017195;28;20064;-68
2023/01/06 06:36:30;;;;;;;6.63;3.60;;;;;;;-7.02;83.54;102423.41;5035111;28;20025;-66
2023/01/06 06:38:56;;;;;;;6.43;4.70;;;;;;;-7.02;85.30;102415.66;5035089;28;20025;-66
2023/01/06 06:41:23;;;;;;;6.17;4.63;;;;;;;-6.96;85.66;102429.41;5017257;28;20029;-67
2023/01/06 06:43:49;;;;;;;6.07;4.05;;;;;;;-6.94;86.77;102442.34;5034829;28;20025;-67
2023/01/06 06:46:15;;;;;;;8.60;4.25;;;;;;;-6.99;86.46;102429.44;5034633;28;20037;-66
2023/01/06 06:48:41;;;;;;;9.52;5.07;;;;;;;-6.90;86.95;102450.09;5034829;28;20037;-67
2023/01/06 06:51:09;;;;;;;5.00;4.20;;;;;;;-6.93;86.98;102451.88;5034810;28;20030;-66
2023/01/06 06:53:36;;;;;;;8.88;4.72;;;;;;;-7.01;87.45;102451.03;5016966;28;20037;-65
2023/01/06 06:56:04;;;;;;;9.00;5.38;;;;;;;-6.97;87.49;102461.34;5034494;28;20033;-66
2023/01/06 06:58:29;;;;;;;9.73;4.70;;;;;;;-6.93;87.51;102470.84;5034624;28;20584;-66
2023/01/06 07:00:55;;;;;;;8.40;4.97;;;;;;;-6.99;87.87;102462.22;5034140;28;20029;-66
2023/01/06 07:03:21;;;;;;;11.73;5.60;;;;;;;-7.03;88.31;102463.13;5034641;28;20033;-67
2023/01/06 07:05:49;;;;;;;11.15;6.35;;;;;;;-7.04;88.89;102476.94;5034590;28;20037;-67
2023/01/06 07:08:15;;;;;;;11.35;6.13;;;;;;;-7.04;88.25;102464.00;5034350;28;20060;-66
2023/01/06 07:10:40;;;;;;;11.50;5.97;;;;;;;-6.98;88.91;102471.72;5034396;28;20064;-65
2023/01/06 07:13:06;;;;;;;11.37;5.63;;;;;;;-6.97;87.92;102470.84;5034392;28;20064;-65
2023/01/06 07:15:32;;;;;;;6.60;4.73;;;;;;;-7.02;88.04;102459.66;5034119;28;20049;-65
2023/01/06 07:18:01;;;;;;;9.60;5.93;;;;;;;-7.08;88.40;102464.88;5034272;28;20044;-65
2023/01/06 07:20:29;;;;;;;9.25;5.30;;;;;;;-7.07;89.00;102466.59;5016506;28;20420;-64
2023/01/06 07:22:54;;;;;;;10.63;6.13;;;;;;;-7.06;88.65;102466.59;5034237;28;20033;-65
2023/01/06 07:25:20;;;;;;;10.37;5.33;;;;;;;-7.09;88.49;102468.34;5034207;28;20080;-69
2023/01/06 07:27:46;;;;;;;10.10;5.78;;;;;;;-7.09;88.91;102465.75;5033991;28;20048;-65
2023/01/06 07:30:12;;;;;;;13.67;7.07;;;;;;;-7.04;89.03;102488.16;5033858;28;20025;-66
2023/01/06 07:32:37;;;;;;;7.45;6.28;;;;;;;-7.05;88.84;102489.03;5034345;28;20477;-65
2023/01/06 07:35:04;;;;;;;17.33;7.73;;;;;;;-7.10;89.36;102483.03;5034207;28;20029;-67
2023/01/06 07:37:29;;;;;;;13.00;6.05;;;;;;;-7.24;88.83;102464.97;5034446;28;20021;-65
2023/01/06 07:39:55;;;;;;;9.90;5.20;;;;;;;-7.08;88.86;102491.66;5036816;28;20060;-64
2023/01/06 07:42:20;;;;;;;11.90;5.37;;;;;;;-7.10;89.52;102484.75;5037483;28;20053;-64
2023/01/06 07:44:45;;;;;;;16.93;5.67;;;;;;;-7.37;89.83;102444.34;5036318;28;20025;-65
2023/01/06 07:47:11;;;;;;;10.00;6.67;;;;;;;-7.11;89.72;102483.03;5036888;28;20034;-65
2023/01/06 07:49:36;;;;;;;6.30;5.00;;;;;;;-7.06;89.66;102497.69;5034366;28;20029;-65
2023/01/06 07:52:02;;;;;;;10.20;5.70;;;;;;;-7.04;89.63;102513.19;5016485;28;20040;-66
2023/01/06 07:54:27;;;;;;;8.10;5.10;;;;;;;-7.09;90.65;102496.84;5034087;28;20083;-66
2023/01/06 07:56:53;;;;;;;14.30;5.20;;;;;;;-7.07;90.50;102492.50;5034016;28;20488;-68
2023/01/06 07:59:18;;;;;;;12.33;6.10;;;;;;;-7.01;91.13;102502.81;5033119;28;20084;-67
2023/01/06 08:01:44;;;;;;;8.40;5.50;;;;;;;-6.96;90.56;102501.91;5015615;28;20029;-66
2023/01/06 08:04:09;;;;;;;14.03;6.93;;;;;;;-6.84;89.73;102506.19;5033503;28;20540;-65
2023/01/06 08:06:38;;;;;;;6.73;5.33;;;;;;;-6.73;89.50;102519.06;5033323;28;20419;-66
2023/01/06 08:09:04;;;;;;;14.07;6.43;;;;;;;-6.86;89.83;102492.38;5033056;28;20602;-65
2023/01/06 08:11:29;;;;;;;10.27;5.33;;;;;;;-6.69;88.71;102521.63;5033157;28;20041;-65
2023/01/06 08:13:55;;;;;;;6.50;4.50;;;;;;;-6.66;89.92;102526.78;5015335;28;20026;-67
2023/01/06 08:16:22;;;;;;;13.07;5.57;;;;;;;-6.58;89.46;102519.84;5033164;28;20045;-65
2023/01/06 08:18:48;;;;;;;9.10;5.32;;;;;;;-6.49;88.83;102531.00;5032869;28;20029;-66
2023/01/06 08:21:13;;;;;;;6.90;5.03;;;;;;;-6.43;89.09;102528.34;5032897;28;20044;-68
2023/01/06 08:23:39;;;;;;;7.80;6.13;;;;;;;-6.38;89.15;102542.13;4998970;28;20354;-66
2023/01/06 08:26:05;;;;;;;15.90;6.97;;;;;;;-6.40;88.92;102541.28;5032675;28;20029;-65
2023/01/06 08:28:32;;;;;;;11.55;6.57;;;;;;;-6.39;89.21;102535.22;5033071;28;20065;-65
2023/01/06 08:30:57;;;;;;;9.57;4.97;;;;;;;-6.36;88.95;102542.97;5033195;28;20064;-66
2023/01/06 08:33:24;;;;;;;8.73;5.70;;;;;;;-6.37;88.27;102552.50;5033666;28;20110;-64
2023/01/06 08:36:00;;;;;;;11.27;6.78;;;;;;;-6.35;88.40;102543.00;5033572;28;20492;-66
2023/01/06 08:38:28;;;;;;;8.77;5.65;;;;;;;-6.38;88.50;102543.00;5033460;28;20393;-64
2023/01/06 08:40:55;;;;;;;10.52;6.00;;;;;;;-6.46;88.58;102549.13;5031833;28;20116;-66
2023/01/06 08:43:21;;;;;;;8.43;5.78;;;;;;;-6.45;88.83;102550.84;5032491;28;20064;-66
2023/01/06 08:45:47;;;;;;;9.70;6.03;;;;;;;-6.42;89.18;102556.00;5032622;28;20061;-66
2023/01/06 08:48:12;;;;;;;10.43;6.40;;;;;;;-6.49;89.41;102559.50;5032389;28;20079;-65
2023/01/06 08:50:39;;;;;;;13.63;7.40;;;;;;;-6.56;89.29;102538.81;5032713;28;20033;-65
2023/01/06 08:53:04;;;;;;;9.75;5.95;;;;;;;-6.43;89.49;102562.91;5033707;28;20064;-65
2023/01/06 08:55:30;;;;;;;9.67;5.47;;;;;;;-6.42;89.60;102561.19;5032086;28;20473;-67
2023/01/06 08:57:56;;;;;;;7.07;5.93;;;;;;;-6.41;89.15;102548.22;5032299;28;20029;-67
2023/01/06 09:00:22;;;;;;;14.13;6.60;;;;;;;-6.30;89.35;102566.28;5032316;28;20125;-66
2023/01/06 09:02:47;;;;;;;9.60;6.07;;;;;;;-6.23;89.29;102557.59;5014268;28;20036;-67
2023/01/06 09:05:13;;;;;;;10.50;6.77;;;;;;;-6.14;88.97;102562.69;5014271;28;20049;-65
2023/01/06 09:07:39;;;;;;;14.17;6.37;;;;;;;-6.20;88.80;102554.97;5032181;28;20069;-65
2023/01/06 09:10:05;;;;;;;13.17;5.40;;;;;;;-6.17;87.92;102557.53;5031910;28;20021;-66
2023/01/06 09:12:30;;;;;;;8.57;6.35;;;;;;;-6.10;88.22;102555.75;5031960;28;20033;-67
2023/01/06 09:14:56;;;;;;;8.13;6.10;;;;;;;-6.06;88.53;102557.47;5032003;28;20042;-66
2023/01/06 09:17:22;;;;;;;15.95;7.03;;;;;;;-6.09;87.53;102555.72;5031946;28;20392;-69
2023/01/06 09:19:48;;;;;;;15.43;6.33;;;;;;;-6.06;87.40;102560.91;5014244;28;20037;-64
2023/01/06 09:22:13;;;;;;;9.00;6.20;;;;;;;-6.06;87.40;102563.50;5031757;28;20430;-67
2023/01/06 09:24:38;;;;;;;9.33;6.40;;;;;;;-6.06;87.25;102550.53;5031874;28;20382;-65
2023/01/06 09:27:04;;;;;;;6.97;6.17;;;;;;;-6.01;87.23;102558.28;5031899;28;20029;-68
2023/01/06 09:29:31;;;;;;;13.32;6.10;;;;;;;-5.97;86.80;102571.22;5032189;28;20048;-65
2023/01/06 09:31:56;;;;;;;15.53;7.53;;;;;;;-6.02;86.83;102561.75;5031946;28;20064;-66
2023/01/06 09:34:22;;;;;;;11.73;6.90;;;;;;;-5.98;86.98;102571.22;5031783;28;20044;-68
2023/01/06 09:36:47;;;;;;;14.20;7.33;;;;;;;-6.05;86.80;102554.88;5031776;28;20064;-65
2023/01/06 09:39:13;;;;;;;10.33;6.50;;;;;;;-6.08;87.24;102567.81;5032291;28;20025;-65
2023/01/06 09:41:50;;;;;;;11.63;6.23;;;;;;;-6.08;87.50;102575.59;5031735;28;20088;-65
2023/01/06 09:44:46;;;;;;;15.85;6.85;;;;;;;-6.03;87.85;102578.19;5031846;28;20048;-65
2023/01/06 09:47:17;;;;;;;11.65;6.35;;;;;;;-6.02;87.79;102578.19;5006241;28;20036;-68
2023/01/06 09:49:48;;;;;;;11.27;5.40;;;;;;;-5.99;87.71;102588.53;5031786;28;20018;-66
2023/01/06 09:52:46;;;;;;;7.95;5.57;;;;;;;-6.07;87.27;102590.31;5032491;28;20411;-66
2023/01/06 09:55:32;;;;;;;10.38;7.55;;;;;;;-6.06;87.13;102583.41;5032702;28;20516;-65
2023/01/06 09:58:04;;;;;;;11.52;7.28;;;;;;;-6.10;87.17;102585.13;5035684;28;20072;-69
2023/01/06 10:00:44;;;;;;;11.55;7.22;;;;;;;-6.10;87.91;102594.66;5035847;28;20044;-64
2023/01/06 10:03:21;;;;;;;9.57;5.93;;;;;;;-6.03;88.16;102592.03;5035430;28;20080;-66
2023/01/06 10:06:05;;;;;;;16.08;7.65;;;;;;;-5.94;87.01;102593.66;5035507;28;20034;-68
2023/01/06 10:08:49;;;;;;;10.18;5.75;;;;;;;-5.88;86.93;102580.59;5035099;28;20128;-64
2023/01/06 10:11:42;;;;;;;13.25;7.28;;;;;;;-5.88;86.66;102587.53;5035739;28;20026;-66
2023/01/06 10:14:37;;;;;;;14.55;6.65;;;;;;;-5.94;86.40;102581.56;5035461;28;20065;-64
2023/01/06 10:17:40;;;;;;;9.65;5.80;;;;;;;-5.93;86.90;102579.81;5035346;28;20431;-68
2023/01/06 10:20:39;;;;;;;14.88;9.50;;;;;;;-5.99;87.29;102583.34;5035098;28;20037;-66
2023/01/06 10:23:16;;;;;;;11.20;6.35;;;;;;;-6.06;86.81;102570.44;5034775;28;20441;-66
2023/01/06 10:25:54;;;;;;;12.27;7.95;;;;;;;-6.07;87.00;102568.69;5017237;28;20029;-65
2023/01/06 10:28:33;;;;;;;13.93;8.63;;;;;;;-6.04;88.23;102574.75;5034711;28;20059;-64
2023/01/06 10:31:05;;;;;;;14.57;7.35;;;;;;;-6.04;87.72;102566.09;5034812;28;20099;-66
2023/01/06 10:33:36;;;;;;;10.73;7.03;;;;;;;-5.94;87.51;102580.69;5034925;28;20377;-64
2023/01/06 10:36:02;;;;;;;13.23;6.43;;;;;;;-6.00;87.43;102576.44;5017308;28;20469;-67
2023/01/06 10:38:37;;;;;;;13.68;7.07;;;;;;;-6.03;87.52;102578.19;5035190;28;20117;-66
2023/01/06 10:41:34;;;;;;;11.07;7.85;;;;;;;-6.00;87.75;102585.94;5034842;28;20055;-66
2023/01/06 10:44:00;;;;;;;16.08;7.85;;;;;;;-5.95;88.23;102587.63;5016417;28;20021;-68
2023/01/06 10:46:32;;;;;;;9.87;6.03;;;;;;;-6.02;87.86;102583.38;5034686;28;20017;-70
2023/01/06 10:48:57;;;;;;;10.98;6.45;;;;;;;-6.04;88.36;102585.13;5034462;28;20402;-68
2023/01/06 10:51:35;;;;;;;10.00;7.23;;;;;;;-6.03;89.41;102589.44;5016839;28;20025;-69
2023/01/06 10:54:14;;;;;;;11.18;5.78;;;;;;;-5.96;88.76;102575.53;5034617;28;20540;-70
2023/01/06 10:56:47;;;;;;;15.80;6.90;;;;;;;-5.84;88.51;102576.25;5034651;28;20099;-68
2023/01/06 10:59:13;;;;;;;8.65;5.47;;;;;;;-6.02;88.80;102546.19;5034612;28;20059;-66
2023/01/06 11:01:55;;;;;;;11.17;6.13;;;;;;;-5.74;87.60;102570.13;5034414;28;20041;-69
2023/01/06 11:04:26;;;;;;;8.77;5.97;;;;;;;-5.77;87.95;102583.13;5033581;28;20038;-69
2023/01/06 11:06:58;;;;;;;11.95;5.88;;;;;;;-5.76;88.54;102584.84;5034277;28;20033;-70
2023/01/06 11:09:23;;;;;;;10.23;6.05;;;;;;;-5.73;89.14;102580.47;5016598;28;20025;-70
2023/01/06 11:11:49;;;;;;;10.50;6.23;;;;;;;-5.69;88.08;102576.97;5034268;28;20056;-71
2023/01/06 11:14:21;;;;;;;9.80;6.35;;;;;;;-5.80;88.28;102550.25;5034352;28;20056;-72
2023/01/06 11:17:05;;;;;;;9.27;6.22;;;;;;;-5.76;87.93;102558.88;5035291;28;20033;-68
2023/01/06 11:19:36;;;;;;;9.18;5.35;;;;;;;-5.77;87.60;102554.56;5034330;28;20036;-68
2023/01/06 11:22:03;;;;;;;8.07;5.55;;;;;;;-5.79;87.75;102577.91;5035010;28;20033;-75
2023/01/06 11:24:29;;;;;;;8.02;4.82;;;;;;;-5.93;88.58;102561.66;5016731;28;20124;-74
2023/01/06 11:27:00;;;;;;;8.97;6.97;;;;;;;-5.79;88.01;102575.31;5034972;28;20029;-71
2023/01/06 11:29:28;;;;;;;7.82;5.55;;;;;;;-5.75;88.30;102587.41;5034405;28;20083;-77
2023/01/06 11:31:57;;;;;;;7.70;6.55;;;;;;;-5.78;88.76;102576.19;5034081;28;20038;-71
2023/01/06 11:34:26;;;;;;;13.27;6.20;;;;;;;-5.85;89.00;102579.72;5034508;28;20035;-76
2023/01/06 11:36:52;;;;;;;14.70;8.75;;;;;;;-5.86;88.83;102589.22;5033526;28;20116;-70